Time;durP1;ratioP1;P1;durP2;ratioP2;P2;SDS_P1;SDS_P2;PMS_P1;PMS_P2;Temp;Humidity;BMP_temperature;BMP_pressure;BME280_temperature;BME280_humidity;BME280_pressure;Samples;Min_cycle;Max_cycle;Signal;HPM_P1;HPM_P2
2023/04/21 00:00:59;;;;;;;8.65;4.93;;;9.90;90.40;;;;;;5033382;28;20228;-87
2023/04/21 00:03:27;;;;;;;10.00;5.47;;;9.90;90.70;;;;;;5033660;28;20537;-86
2023/04/21 00:05:57;;;;;;;9.77;5.32;;;9.80;90.70;;;;;;5017362;28;20187;-85
2023/04/21 00:08:25;;;;;;;12.23;5.65;;;9.80;91.00;;;;;;5017740;28;20275;-85
2023/04/21 00:10:51;;;;;;;7.03;4.82;;;9.80;90.90;;;;;;5034437;28;20175;-85
2023/04/21 00:13:16;;;;;;;8.82;4.88;;;9.80;91.40;;;;;;5034569;28;20272;-86
2023/04/21 00:15:42;;;;;;;9.75;5.32;;;9.70;92.00;;;;;;5017435;28;20567;-87
2023/04/21 00:18:08;;;;;;;11.65;5.18;;;9.70;92.10;;;;;;5018317;28;20180;-86
2023/04/21 00:20:34;;;;;;;10.82;4.85;;;9.70;92.20;;;;;;5035311;28;20711;-86
2023/04/21 00:23:00;;;;;;;10.05;5.40;;;9.60;92.60;;;;;;5034238;28;20207;-86
2023/04/21 00:25:26;;;;;;;15.80;6.13;;;9.60;92.80;;;;;;5034387;28;20177;-86
2023/04/21 00:27:52;;;;;;;8.23;5.22;;;9.60;93.40;;;;;;5034248;28;20184;-86
2023/04/21 00:30:17;;;;;;;7.10;4.82;;;9.50;93.30;;;;;;5033675;28;20183;-86
2023/04/21 00:32:43;;;;;;;8.93;5.57;;;9.50;93.80;;;;;;5034834;28;20200;-87
2023/04/21 00:35:09;;;;;;;10.27;4.90;;;9.50;94.20;;;;;;5034232;28;20208;-86
2023/04/21 00:37:35;;;;;;;8.93;5.00;;;9.50;93.80;;;;;;5033484;28;20184;-86
2023/04/21 00:40:01;;;;;;;10.98;5.85;;;9.50;94.20;;;;;;5034737;28;20173;-85
2023/04/21 00:42:27;;;;;;;9.48;4.88;;;9.50;94.60;;;;;;5034152;28;20184;-85
2023/04/21 00:44:54;;;;;;;9.02;5.63;;;9.40;94.50;;;;;;5033994;28;20177;-85
2023/04/21 00:47:19;;;;;;;8.90;5.50;;;9.40;95.40;;;;;;5034051;28;20188;-87
2023/04/21 00:49:46;;;;;;;8.82;5.43;;;9.40;95.10;;;;;;5034023;28;20200;-86
2023/04/21 00:52:15;;;;;;;8.18;5.00;;;9.40;94.90;;;;;;5016977;28;20208;-85
2023/04/21 00:54:41;;;;;;;9.90;5.22;;;9.40;95.00;;;;;;5032843;28;20204;-85
2023/04/21 00:57:06;;;;;;;10.38;5.88;;;9.40;95.40;;;;;;5032819;28;20267;-85
2023/04/21 00:59:33;;;;;;;10.10;5.47;;;9.40;95.60;;;;;;5033703;28;20181;-85
2023/04/21 01:01:58;;;;;;;8.05;4.72;;;9.30;95.70;;;;;;5034580;28;20706;-86
2023/04/21 01:04:24;;;;;;;7.68;3.85;;;9.30;95.50;;;;;;5016302;28;20199;-86
2023/04/21 01:06:50;;;;;;;9.63;4.70;;;9.30;96.30;;;;;;5016774;28;20177;-87
2023/04/21 01:09:17;;;;;;;7.00;4.65;;;9.20;96.10;;;;;;5034598;28;20174;-87
2023/04/21 01:12:01;;;;;;;8.48;5.15;;;9.20;96.70;;;;;;5034303;28;20659;-87
2023/04/21 01:14:26;;;;;;;8.15;5.22;;;9.10;96.60;;;;;;5034363;28;20222;-87
2023/04/21 01:16:52;;;;;;;6.90;4.67;;;9.10;97.00;;;;;;5035395;28;20177;-87
2023/04/21 01:19:19;;;;;;;9.18;5.13;;;9.10;97.00;;;;;;5017095;28;20180;-87
2023/04/21 01:21:45;;;;;;;7.13;4.47;;;9.10;97.20;;;;;;5033142;28;20619;-86
2023/04/21 01:24:11;;;;;;;11.85;4.60;;;9.00;97.50;;;;;;5033807;28;20192;-86
2023/04/21 01:26:37;;;;;;;8.53;5.17;;;9.00;97.60;;;;;;5033337;28;20179;-85
2023/04/21 01:29:03;;;;;;;8.25;4.60;;;9.00;97.50;;;;;;5032436;28;20530;-86
2023/04/21 01:31:29;;;;;;;7.30;4.85;;;8.90;98.20;;;;;;5033500;28;20212;-85
2023/04/21 01:33:54;;;;;;;7.93;4.97;;;8.90;97.70;;;;;;5032963;28;20212;-85
2023/04/21 01:36:20;;;;;;;6.90;4.65;;;8.90;97.70;;;;;;5032935;28;20176;-85
2023/04/21 01:38:46;;;;;;;12.25;6.18;;;8.90;98.80;;;;;;5032844;28;20650;-86
2023/04/21 01:41:11;;;;;;;12.25;6.38;;;8.90;99.10;;;;;;5032393;28;20192;-86
2023/04/21 01:43:38;;;;;;;9.70;5.38;;;8.80;99.40;;;;;;5034333;28;20185;-86
2023/04/21 01:46:04;;;;;;;10.00;5.72;;;8.80;99.90;;;;;;5032341;28;20234;-86
2023/04/21 01:48:30;;;;;;;11.45;6.32;;;8.70;99.90;;;;;;5035133;28;20183;-85
2023/04/21 01:50:56;;;;;;;11.02;5.38;;;8.70;99.90;;;;;;5033770;28;20205;-86
2023/04/21 01:53:22;;;;;;;11.40;6.03;;;8.60;99.90;;;;;;5034183;28;20208;-85
2023/04/21 01:55:48;;;;;;;10.13;5.72;;;;;;;;;;5034244;28;20180;-84
2023/04/21 01:58:14;;;;;;;10.23;6.05;;;8.60;99.90;;;;;;5036126;28;20682;-85
2023/04/21 02:00:39;;;;;;;10.67;6.17;;;8.50;99.90;;;;;;5036608;28;20187;-85
2023/04/21 02:03:05;;;;;;;13.27;6.13;;;8.50;99.90;;;;;;5038574;28;20228;-86
2023/04/21 02:05:31;;;;;;;10.43;5.20;;;8.50;99.90;;;;;;5038617;28;20231;-85
2023/04/21 02:08:00;;;;;;;12.05;5.90;;;9.90;99.90;;;;;;5023437;28;20248;-88
2023/04/21 02:10:25;;;;;;;11.33;6.47;;;8.40;99.90;;;;;;5022861;28;20283;-87
2023/04/21 02:12:51;;;;;;;11.93;5.88;;;8.30;99.90;;;;;;5023293;28;20309;-86
2023/04/21 02:15:16;;;;;;;8.18;5.32;;;8.30;99.90;;;;;;5040135;28;20191;-86
2023/04/21 02:17:43;;;;;;;10.98;6.15;;;8.20;99.90;;;;;;5038093;28;20181;-86
2023/04/21 02:20:11;;;;;;;10.53;5.33;;;8.20;99.90;;;;;;5040270;28;20177;-87
2023/04/21 02:22:37;;;;;;;9.17;5.03;;;8.10;99.90;;;;;;5041365;28;20219;-85
2023/04/21 02:25:04;;;;;;;12.03;5.93;;;8.10;99.90;;;;;;5044049;28;20176;-86
2023/04/21 02:27:30;;;;;;;14.03;6.13;;;8.10;99.90;;;;;;5022931;28;20188;-86
2023/04/21 02:29:55;;;;;;;12.47;6.27;;;8.00;99.90;;;;;;5040764;28;20261;-85
2023/04/21 02:32:21;;;;;;;11.70;5.97;;;8.00;99.90;;;;;;5040526;28;20544;-84
2023/04/21 02:34:48;;;;;;;10.73;5.80;;;8.00;99.90;;;;;;5023018;28;20204;-85
2023/04/21 02:37:14;;;;;;;10.13;5.15;;;8.00;99.90;;;;;;5023227;28;20192;-85
2023/04/21 02:39:39;;;;;;;10.73;5.47;;;7.90;99.90;;;;;;5036809;28;20543;-86
2023/04/21 02:42:05;;;;;;;12.48;6.55;;;7.90;99.90;;;;;;5019268;28;20181;-85
2023/04/21 02:44:31;;;;;;;12.20;6.97;;;7.80;99.90;;;;;;5038904;28;20184;-86
2023/04/21 02:46:56;;;;;;;13.03;6.23;;;7.80;99.90;;;;;;5039839;28;20223;-86
2023/04/21 02:49:22;;;;;;;12.27;6.17;;;7.70;99.90;;;;;;5037111;28;20177;-86
2023/04/21 02:51:47;;;;;;;10.73;5.73;;;7.70;99.90;;;;;;5035776;28;20173;-86
2023/04/21 02:54:13;;;;;;;11.63;5.70;;;7.60;99.90;;;;;;5039058;28;20208;-86
2023/04/21 02:56:39;;;;;;;13.83;5.70;;;9.10;99.90;;;;;;5024582;28;20571;-86
2023/04/21 02:59:04;;;;;;;14.03;5.77;;;7.50;99.90;;;;;;5039764;28;20181;-87
2023/04/21 03:01:30;;;;;;;10.53;5.30;;;7.50;99.90;;;;;;5040296;28;20589;-85
2023/04/21 03:03:56;;;;;;;8.73;5.37;;;7.50;99.90;;;;;;5039780;28;20195;-86
2023/04/21 03:06:21;;;;;;;17.10;6.37;;;7.50;99.90;;;;;;5039551;28;20189;-86
2023/04/21 03:08:47;;;;;;;9.60;5.23;;;7.50;99.90;;;;;;5022020;28;20199;-86
2023/04/21 03:11:14;;;;;;;10.77;4.93;;;7.50;99.90;;;;;;5041465;28;20184;-87
2023/04/21 03:13:39;;;;;;;11.53;5.33;;;7.50;99.90;;;;;;5043425;28;20292;-84
2023/04/21 03:16:05;;;;;;;8.43;4.63;;;7.60;99.90;;;;;;5044458;28;20231;-85
2023/04/21 03:18:34;;;;;;;9.63;5.33;;;7.50;99.90;;;;;;5039177;28;20212;-84
2023/04/21 03:21:00;;;;;;;9.13;5.80;;;7.50;99.90;;;;;;5036694;28;20192;-85
2023/04/21 03:23:26;;;;;;;13.90;7.43;;;7.50;99.90;;;;;;5019155;28;20188;-85
2023/04/21 03:25:51;;;;;;;9.63;5.13;;;7.40;99.90;;;;;;5036404;28;20212;-85
2023/04/21 03:28:17;;;;;;;12.80;5.77;;;7.40;99.90;;;;;;5036915;28;20185;-86
2023/04/21 03:30:43;;;;;;;11.97;4.90;;;7.00;99.90;;;;;;5037860;28;20594;-86
2023/04/21 03:33:08;;;;;;;9.17;5.07;;;7.40;99.90;;;;;;5006921;28;20668;-86
2023/04/21 03:35:36;;;;;;;9.37;5.43;;;7.30;99.90;;;;;;5026131;28;20212;-86
2023/04/21 03:38:02;;;;;;;7.93;5.07;;;7.20;99.90;;;;;;5033685;28;20196;-89
2023/04/21 03:40:29;;;;;;;9.90;5.27;;;7.30;99.90;;;;;;5022174;28;20187;-82
2023/04/21 03:42:55;;;;;;;7.60;4.00;;;7.30;99.90;;;;;;5038487;28;20184;-85
2023/04/21 03:45:21;;;;;;;11.03;5.43;;;7.30;99.90;;;;;;5018847;28;20713;-86
2023/04/21 03:47:50;;;;;;;13.67;4.67;;;7.30;99.90;;;;;;5035530;28;20208;-87
2023/04/21 03:50:17;;;;;;;9.03;5.57;;;7.30;99.90;;;;;;5004529;28;20184;-83
2023/04/21 03:52:43;;;;;;;7.67;5.63;;;;;;;;;;5036924;28;20206;-86
2023/04/21 03:55:10;;;;;;;9.03;5.03;;;;;;;;;;5037736;28;20220;-86
2023/04/21 03:57:40;;;;;;;10.87;4.57;;;7.40;99.90;;;;;;5039126;28;20181;-86
2023/04/21 04:00:09;;;;;;;10.60;4.57;;;7.40;99.90;;;;;;5035260;28;20206;-86
2023/04/21 04:02:35;;;;;;;8.10;5.03;;;7.50;99.90;;;;;;5036300;28;20710;-86
2023/04/21 04:05:02;;;;;;;7.73;4.20;;;7.60;99.90;;;;;;5036770;28;20667;-86
2023/04/21 04:07:30;;;;;;;7.97;5.00;;;7.60;99.90;;;;;;5018072;28;20602;-85
2023/04/21 04:09:55;;;;;;;6.90;4.80;;;7.60;99.90;;;;;;5034581;28;20250;-85
2023/04/21 04:12:21;;;;;;;7.93;4.87;;;7.70;99.90;;;;;;5036144;28;20192;-86
2023/04/21 04:14:47;;;;;;;5.73;4.40;;;7.80;99.90;;;;;;5021296;28;20319;-87
2023/04/21 04:17:13;;;;;;;7.93;4.33;;;7.80;99.90;;;;;;5036388;28;20231;-85
2023/04/21 04:19:38;;;;;;;7.80;4.80;;;7.90;99.90;;;;;;5039971;28;20208;-86
2023/04/21 04:22:10;;;;;;;7.87;4.60;;;7.90;99.90;;;;;;5020019;28;20251;-85
2023/04/21 04:24:36;;;;;;;6.00;4.00;;;7.90;99.90;;;;;;5053050;28;20184;-84
2023/04/21 04:27:02;;;;;;;7.80;4.33;;;;;;;;;;5039199;28;20191;-86
2023/04/21 04:29:29;;;;;;;11.30;5.00;;;8.20;99.90;;;;;;5054722;28;20184;-85
2023/04/21 04:31:56;;;;;;;7.67;4.23;;;8.30;99.90;;;;;;5054410;28;20196;-84
2023/04/21 04:34:22;;;;;;;9.27;4.83;;;8.30;99.90;;;;;;5038423;28;20204;-88
2023/04/21 04:36:49;;;;;;;8.60;5.60;;;8.40;99.90;;;;;;5039192;28;20192;-87
2023/04/21 04:39:15;;;;;;;7.50;4.43;;;8.30;99.90;;;;;;5052101;28;20181;-85
2023/04/21 04:41:41;;;;;;;6.17;3.63;;;8.60;99.90;;;;;;5025951;28;20185;-88
2023/04/21 04:44:07;;;;;;;10.63;4.70;;;8.70;99.90;;;;;;5035596;28;20300;-88
2023/04/21 04:46:33;;;;;;;11.40;5.35;;;8.70;99.80;;;;;;5037216;28;20189;-87
2023/04/21 04:49:06;;;;;;;5.80;3.77;;;8.90;99.40;;;;;;5035741;28;20254;-87
2023/04/21 04:51:32;;;;;;;6.57;3.93;;;9.00;98.80;;;;;;5037478;28;20199;-87
2023/04/21 04:53:58;;;;;;;11.15;4.05;;;9.10;97.40;;;;;;5037002;28;20216;-88
2023/04/21 04:56:23;;;;;;;6.40;4.25;;;9.20;95.90;;;;;;5037256;28;20189;-87
2023/04/21 04:58:49;;;;;;;7.87;3.70;;;9.30;95.00;;;;;;5036982;28;20195;-86
2023/04/21 05:01:16;;;;;;;9.40;3.40;;;9.40;94.40;;;;;;5054522;28;20271;-84
2023/04/21 05:03:42;;;;;;;6.15;3.67;;;9.40;94.80;;;;;;5038937;28;20192;-86
2023/04/21 05:06:09;;;;;;;6.30;3.40;;;9.50;93.60;;;;;;5052272;28;20188;-86
2023/04/21 05:08:35;;;;;;;5.18;3.65;;;9.60;93.40;;;;;;5037337;28;20718;-87
2023/04/21 05:11:01;;;;;;;5.93;2.83;;;9.60;92.90;;;;;;5036439;28;20685;-85
2023/04/21 05:13:27;;;;;;;6.70;2.83;;;9.70;91.60;;;;;;5037961;28;20697;-85
2023/04/21 05:15:57;;;;;;;6.35;3.28;;;9.80;92.20;;;;;;5040028;28;20191;-87
2023/04/21 05:18:23;;;;;;;4.35;2.97;;;9.80;91.30;;;;;;5039264;28;20196;-86
2023/04/21 05:20:48;;;;;;;7.32;3.35;;;9.90;90.80;;;;;;5040267;28;20195;-86
2023/04/21 05:23:14;;;;;;;4.40;3.08;;;9.90;90.70;;;;;;5037919;28;20292;-85
2023/04/21 05:25:40;;;;;;;5.45;3.17;;;10.00;90.30;;;;;;5020837;28;20660;-86
2023/04/21 05:28:06;;;;;;;4.07;2.67;;;10.00;92.20;;;;;;5040174;28;20184;-89
2023/04/21 05:30:32;;;;;;;4.88;3.53;;;;;;;;;;5042138;28;20183;-87
2023/04/21 05:32:57;;;;;;;4.50;3.03;;;10.10;87.50;;;;;;5021861;28;20188;-86
2023/04/21 05:35:23;;;;;;;7.43;3.08;;;10.20;88.80;;;;;;5021321;28;20181;-85
2023/04/21 05:37:49;;;;;;;5.90;3.92;;;10.30;89.30;;;;;;5038381;28;20195;-85
2023/04/21 05:40:14;;;;;;;3.85;3.40;;;10.40;88.30;;;;;;5038219;28;20199;-87
2023/04/21 05:42:40;;;;;;;4.93;2.83;;;10.70;88.60;;;;;;5040268;28;20181;-87
2023/04/21 05:45:14;;;;;;;5.97;3.30;;;10.60;87.70;;;;;;5022248;28;20535;-85
2023/04/21 05:47:39;;;;;;;3.78;2.75;;;10.70;86.30;;;;;;5039281;28;20638;-86
2023/04/21 05:50:07;;;;;;;9.48;3.00;;;8.40;85.90;;;;;;5022390;28;20188;-86
2023/04/21 05:52:33;;;;;;;4.43;2.90;;;10.80;84.80;;;;;;5039638;28;20225;-86
2023/04/21 05:54:59;;;;;;;6.53;3.20;;;10.90;84.30;;;;;;5038256;28;20216;-86
2023/04/21 05:57:26;;;;;;;4.78;2.70;;;11.00;83.10;;;;;;5040588;28;20271;-87
2023/04/21 05:59:52;;;;;;;4.82;2.65;;;11.10;81.50;;;;;;5043094;28;20188;-85
2023/04/21 06:02:18;;;;;;;4.55;2.72;;;11.20;81.90;;;;;;5041773;28;20255;-86
2023/04/21 06:04:44;;;;;;;8.32;3.28;;;11.30;80.00;;;;;;5043061;28;20648;-86
2023/04/21 06:07:12;;;;;;;4.60;2.30;;;11.30;80.60;;;;;;5043600;28;20185;-86
2023/04/21 06:09:39;;;;;;;3.75;2.47;;;11.40;80.20;;;;;;5046189;28;20188;-84
2023/04/21 06:12:06;;;;;;;4.55;2.95;;;11.50;77.70;;;;;;5045060;28;20629;-86
2023/04/21 06:14:31;;;;;;;4.68;2.78;;;11.60;78.10;;;;;;5044187;28;20197;-86
2023/04/21 06:16:58;;;;;;;14.52;3.47;;;11.60;76.90;;;;;;5044474;28;20185;-85
2023/04/21 06:19:25;;;;;;;4.97;2.47;;;11.70;78.00;;;;;;5045339;28;20190;-86
2023/04/21 06:21:51;;;;;;;4.85;2.60;;;11.70;77.90;;;;;;5025357;28;20184;-85
2023/04/21 06:24:23;;;;;;;3.80;2.78;;;11.80;78.00;;;;;;5042327;28;20191;-85
2023/04/21 06:26:51;;;;;;;4.80;2.80;;;11.90;76.50;;;;;;5038498;28;20169;-88
2023/04/21 06:29:16;;;;;;;3.40;2.50;;;12.10;75.80;;;;;;5052119;28;20215;-87
2023/04/21 06:31:42;;;;;;;4.85;3.35;;;12.10;74.90;;;;;;5046139;28;20189;-90
2023/04/21 06:34:08;;;;;;;4.30;2.72;;;12.20;75.10;;;;;;5046886;28;20204;-88
2023/04/21 06:36:33;;;;;;;5.80;2.80;;;12.20;74.00;;;;;;5055439;28;20184;-88
2023/04/21 06:38:59;;;;;;;3.92;2.50;;;12.20;74.60;;;;;;5037040;28;20184;-89
2023/04/21 06:41:30;;;;;;;6.10;3.13;;;12.30;73.30;;;;;;5053334;28;20193;-88
2023/04/21 06:43:57;;;;;;;5.43;2.72;;;12.40;73.50;;;;;;5049569;28;20189;-89
2023/04/21 06:46:26;;;;;;;6.32;3.17;;;12.40;74.00;;;;;;5049954;28;20171;-90
2023/04/21 06:48:52;;;;;;;5.93;2.63;;;12.50;72.60;;;;;;5048519;28;20185;-91
2023/04/21 06:51:27;;;;;;;5.03;2.83;;;12.60;72.70;;;;;;5048444;28;20188;-89
2023/04/21 06:54:06;;;;;;;3.58;2.38;;;12.70;74.50;;;;;;5047650;28;20218;-87
2023/04/21 06:56:35;;;;;;;6.85;2.63;;;12.70;71.30;;;;;;5048377;28;20212;-87
2023/04/21 06:59:11;;;;;;;5.80;2.70;;;13.00;76.40;;;;;;5030344;28;20185;-86
2023/04/21 07:01:38;;;;;;;5.63;2.95;;;13.20;70.20;;;;;;5043250;28;20753;-88
2023/04/21 07:04:04;;;;;;;4.65;2.80;;;13.00;73.40;;;;;;5044919;28;20184;-87
2023/04/21 07:06:31;;;;;;;4.88;2.75;;;12.90;72.50;;;;;;5046141;28;20160;-87
2023/04/21 07:08:59;;;;;;;6.72;2.42;;;13.00;72.20;;;;;;5047407;28;20183;-88
2023/04/21 07:11:27;;;;;;;3.42;2.33;;;12.70;69.20;;;;;;5047893;28;20185;-88
2023/04/21 07:14:01;;;;;;;5.00;2.25;;;13.20;70.90;;;;;;5028579;28;20216;-86
2023/04/21 07:16:27;;;;;;;5.65;2.40;;;12.60;72.70;;;;;;5041501;28;20626;-87
2023/04/21 07:18:53;;;;;;;6.28;2.75;;;13.60;69.40;;;;;;5035037;28;20267;-86
2023/04/21 07:21:18;;;;;;;5.00;2.28;;;13.60;68.50;;;;;;5017873;28;20263;-87
2023/04/21 07:23:44;;;;;;;3.38;2.45;;;13.60;66.60;;;;;;5034794;28;20627;-86
2023/04/21 07:26:10;;;;;;;3.13;2.13;;;13.60;68.00;;;;;;5035708;28;20199;-87
2023/04/21 07:28:37;;;;;;;5.60;2.45;;;13.80;67.50;;;;;;5034218;28;20215;-87
2023/04/21 07:31:03;;;;;;;8.10;2.55;;;13.90;66.90;;;;;;5035588;28;20188;-88
2023/04/21 07:33:29;;;;;;;4.28;2.58;;;14.10;67.80;;;;;;5034190;28;20671;-87
2023/04/21 07:35:55;;;;;;;5.95;2.50;;;14.20;65.60;;;;;;5017441;28;20227;-87
2023/04/21 07:38:20;;;;;;;8.35;2.58;;;14.20;66.00;;;;;;5017702;28;20215;-87
2023/04/21 07:40:48;;;;;;;4.28;2.65;;;14.30;65.50;;;;;;5033558;28;20173;-87
2023/04/21 07:43:14;;;;;;;3.38;2.20;;;14.30;66.00;;;;;;5033745;28;20220;-86
2023/04/21 07:45:40;;;;;;;3.72;2.30;;;14.30;63.40;;;;;;5033737;28;20208;-86
2023/04/21 07:48:06;;;;;;;3.53;2.08;;;14.30;65.60;;;;;;5018967;28;20309;-86
2023/04/21 07:50:34;;;;;;;6.50;2.92;;;14.40;63.30;;;;;;5033778;28;20176;-87
2023/04/21 07:53:00;;;;;;;6.80;4.10;;;14.50;64.20;;;;;;5016583;28;20184;-87
2023/04/21 07:55:26;;;;;;;6.93;2.30;;;14.50;65.70;;;;;;5033606;28;20200;-86
2023/04/21 07:57:52;;;;;;;3.70;2.45;;;14.60;64.20;;;;;;5015815;28;20185;-87
2023/04/21 08:00:18;;;;;;;2.70;2.47;;;14.70;64.10;;;;;;5032102;28;20191;-87
2023/04/21 08:02:44;;;;;;;5.82;2.70;;;14.90;61.80;;;;;;5032067;28;20236;-87
2023/04/21 08:05:09;;;;;;;8.50;2.28;;;15.00;62.10;;;;;;5034444;28;20187;-87
2023/04/21 08:07:35;;;;;;;4.07;2.35;;;15.10;60.80;;;;;;5034557;28;20674;-86
2023/04/21 08:10:01;;;;;;;4.53;2.42;;;15.20;60.00;;;;;;5032977;28;20177;-87
2023/04/21 08:12:27;;;;;;;4.40;2.50;;;15.20;58.60;;;;;;5017011;28;20569;-87
2023/04/21 08:14:53;;;;;;;3.13;2.10;;;15.30;59.20;;;;;;5016613;28;20216;-87
2023/04/21 08:17:19;;;;;;;3.83;2.10;;;15.40;57.60;;;;;;5033190;28;20717;-87
2023/04/21 08:19:44;;;;;;;3.63;2.28;;;15.50;59.00;;;;;;5031827;28;20180;-87
2023/04/21 08:22:10;;;;;;;3.05;2.30;;;15.40;55.10;;;;;;5033363;28;20185;-86
2023/04/21 08:24:36;;;;;;;5.38;2.15;;;15.50;55.90;;;;;;5016758;28;20192;-87
2023/04/21 08:27:02;;;;;;;1.98;1.77;;;15.60;55.60;;;;;;5016863;28;20219;-88
2023/04/21 08:29:27;;;;;;;3.30;2.15;;;15.70;54.90;;;;;;5017235;28;20176;-87
2023/04/21 08:31:53;;;;;;;9.07;2.33;;;15.70;54.00;;;;;;5032664;28;20181;-87
2023/04/21 08:34:19;;;;;;;2.28;1.83;;;15.80;54.30;;;;;;5032809;28;20196;-87
2023/04/21 08:36:46;;;;;;;3.47;1.88;;;16.00;53.60;;;;;;5032572;28;20532;-89
2023/04/21 08:39:13;;;;;;;4.28;2.35;;;16.10;50.60;;;;;;5033279;28;20187;-88
2023/04/21 08:41:40;;;;;;;3.80;1.85;;;16.20;52.70;;;;;;5033924;28;20164;-88
2023/04/21 08:44:07;;;;;;;4.07;2.17;;;16.30;51.90;;;;;;5034041;28;20177;-87
2023/04/21 08:46:33;;;;;;;4.60;2.22;;;16.40;51.60;;;;;;5034063;28;20180;-87
2023/04/21 08:49:00;;;;;;;3.80;2.08;;;16.60;50.00;;;;;;5032380;28;20188;-88
2023/04/21 08:51:27;;;;;;;5.30;1.67;;;16.60;50.00;;;;;;5032357;28;20260;-88
2023/04/21 08:53:56;;;;;;;2.50;1.70;;;16.70;50.90;;;;;;5032364;28;20689;-88
2023/04/21 08:56:25;;;;;;;2.05;1.63;;;16.80;49.00;;;;;;5033173;28;20192;-87
2023/04/21 08:58:50;;;;;;;1.92;1.63;;;16.80;49.00;;;;;;5017013;28;20184;-87
2023/04/21 09:01:16;;;;;;;3.03;1.42;;;16.80;50.40;;;;;;5034311;28;20243;-87
2023/04/21 09:03:41;;;;;;;2.85;1.90;;;16.80;48.00;;;;;;5034132;28;20172;-87
2023/04/21 09:06:08;;;;;;;3.17;1.60;;;16.80;46.60;;;;;;5033016;28;20188;-87
2023/04/21 09:08:37;;;;;;;3.53;2.03;;;16.90;50.50;;;;;;5033773;28;20231;-87
2023/04/21 09:11:03;;;;;;;2.03;1.70;;;17.00;48.70;;;;;;5034233;28;20188;-87
2023/04/21 09:13:36;;;;;;;6.28;1.45;;;17.00;47.90;;;;;;5033397;28;20215;-86
2023/04/21 09:16:07;;;;;;;2.13;1.73;;;17.00;49.10;;;;;;5032568;28;20543;-86
2023/04/21 09:18:35;;;;;;;3.42;2.08;;;17.10;49.80;;;;;;5033176;28;20180;-87
2023/04/21 09:21:10;;;;;;;3.72;1.67;;;16.90;48.70;;;;;;5032157;28;20264;-87
2023/04/21 09:23:40;;;;;;;2.08;1.83;;;17.00;49.80;;;;;;5034126;28;20176;-87
2023/04/21 09:26:06;;;;;;;1.73;1.63;;;17.20;49.90;;;;;;5032542;28;20269;-88
2023/04/21 09:28:32;;;;;;;1.50;1.40;;;17.40;47.50;;;;;;5032089;28;20198;-87
2023/04/21 09:30:57;;;;;;;2.70;1.70;;;17.40;48.00;;;;;;5014880;28;20185;-87
2023/04/21 09:33:23;;;;;;;7.47;1.67;;;17.50;47.90;;;;;;5033446;28;20546;-87
2023/04/21 09:35:51;;;;;;;2.45;1.80;;;17.60;49.00;;;;;;5032081;28;20192;-87
2023/04/21 09:38:16;;;;;;;2.50;1.63;;;17.60;47.00;;;;;;5032014;28;20176;-86
2023/04/21 09:40:42;;;;;;;3.58;2.00;;;17.50;45.90;;;;;;5031964;28;20176;-86
2023/04/21 09:43:08;;;;;;;2.88;1.58;;;17.80;47.70;;;;;;5031505;28;20235;-86
2023/04/21 09:45:35;;;;;;;3.42;1.85;;;17.80;47.70;;;;;;5031805;28;20180;-86
2023/04/21 09:48:02;;;;;;;3.42;1.92;;;17.80;48.40;;;;;;5031656;28;20734;-86
2023/04/21 09:50:28;;;;;;;1.80;1.50;;;18.00;47.30;;;;;;5033119;28;20215;-86
2023/04/21 09:52:56;;;;;;;2.22;1.70;;;18.10;46.30;;;;;;5015548;28;20184;-87
2023/04/21 09:55:27;;;;;;;3.30;1.92;;;17.60;44.70;;;;;;5032010;28;20214;-84
2023/04/21 09:58:05;;;;;;;2.95;2.00;;;17.60;46.00;;;;;;5040530;28;20222;-86
2023/04/21 10:00:31;;;;;;;2.60;2.00;;;17.80;46.30;;;;;;5040849;28;20181;-86
2023/04/21 10:03:04;;;;;;;6.28;1.80;;;17.80;46.10;;;;;;5035772;28;20236;-88
2023/04/21 10:05:29;;;;;;;1.95;1.48;;;18.10;46.90;;;;;;5032451;28;20172;-85
2023/04/21 10:07:56;;;;;;;3.38;2.08;;;18.30;47.40;;;;;;5032438;28;20203;-87
2023/04/21 10:10:25;;;;;;;2.63;1.70;;;18.50;48.70;;;;;;5033789;28;20179;-88
2023/04/21 10:12:52;;;;;;;2.65;1.80;;;18.60;47.90;;;;;;5031533;28;20188;-89
2023/04/21 10:15:34;;;;;;;3.60;1.90;;;18.70;43.70;;;;;;5015623;28;20705;-86
2023/04/21 10:18:20;;;;;;;3.20;1.85;;;18.90;45.80;;;;;;5031430;28;20246;-86
2023/04/21 10:21:10;;;;;;;2.08;1.67;;;19.10;45.80;;;;;;5033154;28;20218;-87
2023/04/21 10:23:41;;;;;;;3.25;1.67;;;19.00;43.90;;;;;;5032418;28;20704;-87
2023/04/21 10:26:21;;;;;;;2.33;1.73;;;19.00;44.60;;;;;;5033131;28;20157;-87
2023/04/21 10:28:59;;;;;;;2.33;1.58;;;18.80;44.40;;;;;;5031866;28;20203;-86
2023/04/21 10:31:43;;;;;;;1.70;1.60;;;19.10;44.60;;;;;;5039308;28;20215;-86
2023/04/21 10:34:11;;;;;;;3.00;1.45;;;19.00;44.20;;;;;;5049270;28;20209;-88
2023/04/21 10:36:58;;;;;;;2.90;1.95;;;18.90;43.70;;;;;;5035628;28;20590;-87
2023/04/21 10:39:34;;;;;;;4.05;2.25;;;18.70;44.00;;;;;;5030811;28;20181;-86
2023/04/21 10:42:12;;;;;;;2.28;1.55;;;19.00;45.50;;;;;;5032186;28;20200;-86
2023/04/21 10:44:56;;;;;;;2.03;1.70;;;19.00;43.90;;;;;;5034283;28;20615;-86
2023/04/21 10:47:35;;;;;;;2.17;1.45;;;19.10;44.80;;;;;;5036320;28;20176;-86
2023/04/21 10:50:13;;;;;;;2.38;1.98;;;19.20;45.80;;;;;;5034553;28;20184;-87
2023/04/21 10:52:42;;;;;;;3.15;1.80;;;19.20;45.00;;;;;;5034955;28;20634;-86
2023/04/21 10:55:11;;;;;;;5.15;1.90;;;19.40;45.10;;;;;;5035583;28;20311;-85
2023/04/21 10:57:39;;;;;;;2.30;1.52;;;19.60;45.90;;;;;;5036281;28;20176;-88
2023/04/21 11:00:06;;;;;;;2.72;1.50;;;19.70;46.30;;;;;;5034572;28;20188;-88
2023/04/21 11:02:32;;;;;;;4.18;1.80;;;19.70;43.30;;;;;;5017762;28;20232;-89
2023/04/21 11:04:59;;;;;;;3.58;1.80;;;19.90;45.50;;;;;;5034432;28;20181;-86
2023/04/21 11:07:25;;;;;;;4.15;2.40;;;20.00;44.30;;;;;;5034729;28;20274;-87
2023/04/21 11:09:59;;;;;;;3.10;1.92;;;19.90;44.10;;;;;;5034546;28;20633;-86
2023/04/21 11:12:30;;;;;;;3.47;2.05;;;19.80;44.70;;;;;;5035738;28;20183;-88
2023/04/21 11:14:56;;;;;;;2.63;2.05;;;19.90;45.00;;;;;;5035253;28;20201;-87
2023/04/21 11:17:23;;;;;;;4.05;2.25;;;20.00;44.40;;;;;;5035971;28;20306;-87
2023/04/21 11:19:51;;;;;;;3.92;2.20;;;20.10;46.50;;;;;;5034325;28;20177;-86
2023/04/21 11:22:17;;;;;;;4.50;2.00;;;20.10;43.70;;;;;;5035179;28;20282;-87
2023/04/21 11:24:45;;;;;;;2.75;2.03;;;20.20;45.30;;;;;;5034014;28;20334;-87
2023/04/21 11:27:11;;;;;;;3.47;1.75;;;20.10;43.20;;;;;;5035213;28;20200;-87
2023/04/21 11:29:37;;;;;;;2.42;1.58;;;20.10;46.40;;;;;;5035543;28;20179;-87
2023/04/21 11:32:06;;;;;;;5.47;1.98;;;20.10;42.80;;;;;;5034053;28;20263;-87
2023/04/21 11:34:31;;;;;;;1.67;1.50;;;19.80;42.10;;;;;;5034145;28;20196;-88
2023/04/21 11:36:57;;;;;;;4.38;2.08;;;19.80;42.20;;;;;;5034198;28;20272;-87
2023/04/21 11:39:23;;;;;;;3.28;1.92;;;19.90;43.00;;;;;;5033367;28;20207;-87
2023/04/21 11:41:50;;;;;;;2.40;1.65;;;19.90;43.20;;;;;;5037324;28;20189;-87
2023/04/21 11:44:41;;;;;;;5.45;2.03;;;19.50;42.80;;;;;;5035134;28;20184;-88
2023/04/21 11:47:17;;;;;;;2.47;1.80;;;19.50;45.90;;;;;;5033495;28;20182;-87
2023/04/21 11:49:48;;;;;;;3.50;1.77;;;19.80;44.40;;;;;;5050191;28;20670;-88
2023/04/21 11:52:42;;;;;;;2.22;1.90;;;19.90;45.60;;;;;;5035130;28;20165;-89
2023/04/21 11:55:15;;;;;;;3.85;1.90;;;20.10;44.00;;;;;;5034490;28;20355;-89
2023/04/21 11:57:41;;;;;;;3.40;1.92;;;20.10;43.80;;;;;;5034634;28;20181;-88
2023/04/21 12:00:15;;;;;;;2.53;1.90;;;20.30;44.30;;;;;;5034467;28;20642;-87
2023/04/21 12:02:42;;;;;;;2.55;1.80;;;20.40;43.60;;;;;;5032170;28;20262;-87
2023/04/21 12:05:13;;;;;;;3.42;1.70;;;20.50;43.40;;;;;;5034171;28;20180;-88
2023/04/21 12:07:46;;;;;;;2.00;1.80;;;20.60;43.70;;;;;;5048689;28;20173;-87
2023/04/21 12:10:21;;;;;;;6.40;1.70;;;20.60;43.40;;;;;;5035522;28;20619;-87
2023/04/21 12:12:47;;;;;;;2.78;2.00;;;20.60;42.40;;;;;;5041409;28;20214;-87
2023/04/21 12:15:21;;;;;;;3.33;2.13;;;20.70;42.60;;;;;;5042048;28;20193;-88
2023/04/21 12:17:52;;;;;;;1.73;1.55;;;20.80;42.00;;;;;;5043944;28;20176;-87
2023/04/21 12:20:19;;;;;;;3.67;2.15;;;20.50;42.80;;;;;;5035057;28;20553;-88
2023/04/21 12:22:45;;;;;;;2.85;1.80;;;20.80;42.20;;;;;;5043939;28;20180;-88
2023/04/21 12:25:11;;;;;;;2.95;2.08;;;20.80;42.80;;;;;;5045034;28;20176;-87
2023/04/21 12:27:37;;;;;;;6.10;2.08;;;21.10;43.10;;;;;;5049154;28;20635;-88
2023/04/21 12:30:03;;;;;;;3.53;2.10;;;21.20;41.30;;;;;;5029510;28;20183;-88
2023/04/21 12:32:29;;;;;;;4.03;2.10;;;21.30;41.60;;;;;;5045597;28;20256;-89
2023/04/21 12:34:55;;;;;;;2.55;2.22;;;21.10;43.10;;;;;;5046925;28;20204;-88
2023/04/21 12:37:20;;;;;;;4.15;1.92;;;21.20;43.60;;;;;;5030174;28;20195;-88
2023/04/21 12:39:47;;;;;;;3.00;2.35;;;21.30;43.70;;;;;;5038125;28;20190;-89
2023/04/21 12:42:17;;;;;;;7.30;2.53;;;21.50;42.10;;;;;;5019410;28;20647;-88
2023/04/21 12:44:42;;;;;;;4.15;2.50;;;21.80;42.20;;;;;;5019137;28;20250;-88
2023/04/21 12:47:08;;;;;;;6.10;3.33;;;21.60;44.00;;;;;;5034880;28;20627;-88
2023/04/21 12:49:34;;;;;;;5.07;2.42;;;21.20;42.30;;;;;;5034844;28;20172;-89
2023/04/21 12:52:00;;;;;;;3.03;2.30;;;20.50;42.10;;;;;;5036927;28;20177;-89